Time;durP1;ratioP1;P1;durP2;ratioP2;P2;SDS_P1;SDS_P2;PMS_P1;PMS_P2;Temp;Humidity;BMP_temperature;BMP_pressure;BME280_temperature;BME280_humidity;BME280_pressure;Samples;Min_cycle;Max_cycle;Signal;HPM_P1;HPM_P2
2023/05/26 00:00:35;;;;;;;0.10;0.10;;;;;;;;;;5010764;28;20174;-80
2023/05/26 00:03:03;;;;;;;0.10;0.10;;;;;;;;;;5012008;28;20251;-80
2023/05/26 00:05:30;;;;;;;0.10;0.10;;;;;;;;;;5010996;28;20092;-80
2023/05/26 00:07:56;;;;;;;0.20;0.20;;;;;;;;;;5007066;28;20063;-80
2023/05/26 00:10:24;;;;;;;0.10;0.10;;;;;;;;;;4999816;28;20477;-80
2023/05/26 00:12:50;;;;;;;0.10;0.10;;;;;;;;;;5013443;28;20041;-80
2023/05/26 00:15:17;;;;;;;0.13;0.13;;;;;;;;;;5013986;28;21273;-80
2023/05/26 00:17:47;;;;;;;0.10;0.10;;;;;;;;;;5017793;28;20097;-80
2023/05/26 00:20:14;;;;;;;0.10;0.10;;;;;;;;;;5001936;28;20039;-80
2023/05/26 00:22:41;;;;;;;0.10;0.10;;;;;;;;;;4999638;28;20062;-80
2023/05/26 00:25:08;;;;;;;0.10;0.10;;;;;;;;;;4998909;28;20066;-80
2023/05/26 00:27:34;;;;;;;0.10;0.10;;;;;;;;;;4998609;28;20471;-80
2023/05/26 00:30:01;;;;;;;0.10;0.10;;;;;;;;;;5005645;28;20058;-80
2023/05/26 00:32:28;;;;;;;0.13;0.13;;;;;;;;;;5018770;28;21197;-80
2023/05/26 00:34:55;;;;;;;0.70;0.45;;;;;;;;;;5014840;28;20046;-80
2023/05/26 00:37:21;;;;;;;0.10;0.10;;;;;;;;;;5022598;28;20050;-80
2023/05/26 00:39:48;;;;;;;0.10;0.10;;;;;;;;;;5017859;28;20043;-80
2023/05/26 00:42:14;;;;;;;0.32;0.32;;;;;;;;;;5010676;28;20065;-80
2023/05/26 00:44:41;;;;;;;0.10;0.10;;;;;;;;;;5013377;28;20038;-81
2023/05/26 00:47:07;;;;;;;0.10;0.10;;;;;;;;;;5012051;28;20101;-80
2023/05/26 00:49:34;;;;;;;0.10;0.10;;;;;;;;;;5011187;28;20499;-80
2023/05/26 00:52:01;;;;;;;0.10;0.10;;;;;;;;;;5004902;28;20066;-80
2023/05/26 00:54:28;;;;;;;0.10;0.10;;;;;;;;;;5010236;28;20054;-80
2023/05/26 00:56:55;;;;;;;0.10;0.10;;;;;;;;;;5013144;28;20054;-80
2023/05/26 00:59:21;;;;;;;0.10;0.10;;;;;;;;;;5013388;28;20054;-80
2023/05/26 01:01:49;;;;;;;0.10;0.10;;;;;;;;;;5011634;28;20058;-80
2023/05/26 01:04:16;;;;;;;0.10;0.10;;;;;;;;;;5012548;28;20077;-80
2023/05/26 01:06:44;;;;;;;0.10;0.10;;;;;;;;;;5012765;28;20042;-80
2023/05/26 01:09:12;;;;;;;0.10;0.10;;;;;;;;;;5007242;28;20054;-80
2023/05/26 01:11:58;;;;;;;0.10;0.10;;;;;;;;;;5003736;28;20042;-80
2023/05/26 01:14:37;;;;;;;0.10;0.10;;;;;;;;;;5011662;28;20781;-80
2023/05/26 01:17:07;;;;;;;0.10;0.10;;;;;;;;;;5013159;28;20077;-80
2023/05/26 01:19:34;;;;;;;0.10;0.10;;;;;;;;;;5012194;28;20058;-80
2023/05/26 01:22:13;;;;;;;0.10;0.10;;;;;;;;;;5010785;28;20532;-80
2023/05/26 01:24:43;;;;;;;0.10;0.10;;;;;;;;;;5013982;28;20054;-80
2023/05/26 01:27:23;;;;;;;0.10;0.10;;;;;;;;;;5013400;28;20041;-80
2023/05/26 01:29:50;;;;;;;0.10;0.10;;;;;;;;;;5012216;28;20054;-80
2023/05/26 01:32:17;;;;;;;0.10;0.10;;;;;;;;;;5013585;28;20054;-80
2023/05/26 01:34:43;;;;;;;0.30;0.30;;;;;;;;;;5014469;28;20064;-80
2023/05/26 01:37:10;;;;;;;0.10;0.10;;;;;;;;;;5013264;28;20042;-81
2023/05/26 01:39:37;;;;;;;0.20;0.20;;;;;;;;;;5000629;28;20055;-80
2023/05/26 01:42:20;;;;;;;0.10;0.10;;;;;;;;;;5009509;28;20061;-80
2023/05/26 01:45:05;;;;;;;0.10;0.10;;;;;;;;;;5007107;28;20102;-80
2023/05/26 01:47:32;;;;;;;0.10;0.10;;;;;;;;;;5011079;28;20054;-80
2023/05/26 01:50:01;;;;;;;0.10;0.10;;;;;;;;;;5012350;28;20085;-80
2023/05/26 01:52:27;;;;;;;0.10;0.10;;;;;;;;;;5007845;28;20651;-80
2023/05/26 01:54:59;;;;;;;0.10;0.10;;;;;;;;;;5013166;28;20501;-80
2023/05/26 01:57:26;;;;;;;0.10;0.10;;;;;;;;;;5011282;28;20690;-80
2023/05/26 01:59:53;;;;;;;0.10;0.10;;;;;;;;;;5005369;28;20136;-80
2023/05/26 02:02:19;;;;;;;0.10;0.10;;;;;;;;;;4992223;28;20062;-80
2023/05/26 02:04:46;;;;;;;0.10;0.10;;;;;;;;;;4997579;28;20051;-80
2023/05/26 02:07:12;;;;;;;0.10;0.10;;;;;;;;;;5003498;28;20180;-80
2023/05/26 02:09:39;;;;;;;0.10;0.10;;;;;;;;;;5010113;28;20054;-80
2023/05/26 02:12:06;;;;;;;0.10;0.10;;;;;;;;;;5011563;28;20050;-80
2023/05/26 02:14:33;;;;;;;0.10;0.10;;;;;;;;;;5010889;28;20059;-80
2023/05/26 02:16:59;;;;;;;0.10;0.10;;;;;;;;;;5009631;28;20279;-80
2023/05/26 02:19:26;;;;;;;0.10;0.10;;;;;;;;;;5011499;28;20531;-80
2023/05/26 02:21:52;;;;;;;0.10;0.10;;;;;;;;;;5012852;28;20057;-80
2023/05/26 02:24:20;;;;;;;1.98;0.70;;;;;;;;;;5012014;28;20892;-80
2023/05/26 02:26:46;;;;;;;0.10;0.10;;;;;;;;;;5000546;28;20051;-80
2023/05/26 02:29:13;;;;;;;0.10;0.10;;;;;;;;;;5014329;28;20145;-80
2023/05/26 02:31:39;;;;;;;0.13;0.13;;;;;;;;;;5012073;28;20039;-80
2023/05/26 02:34:10;;;;;;;0.10;0.10;;;;;;;;;;5012070;28;20133;-81
2023/05/26 02:36:37;;;;;;;0.10;0.10;;;;;;;;;;5014103;28;20096;-80
2023/05/26 02:39:03;;;;;;;0.10;0.10;;;;;;;;;;5006730;28;20201;-80
2023/05/26 02:41:30;;;;;;;0.10;0.10;;;;;;;;;;5006628;28;20099;-80
2023/05/26 02:43:57;;;;;;;0.10;0.10;;;;;;;;;;5011082;28;20058;-80
2023/05/26 02:46:24;;;;;;;0.10;0.10;;;;;;;;;;5011497;28;20425;-80
2023/05/26 02:48:51;;;;;;;1.17;0.60;;;;;;;;;;5008324;28;20054;-80
2023/05/26 02:51:17;;;;;;;0.10;0.10;;;;;;;;;;5005627;28;20084;-81
2023/05/26 02:53:45;;;;;;;0.10;0.10;;;;;;;;;;5011675;28;20054;-81
2023/05/26 02:56:12;;;;;;;0.10;0.10;;;;;;;;;;5011147;28;20109;-80
2023/05/26 02:58:38;;;;;;;0.10;0.10;;;;;;;;;;5010624;28;20062;-81
2023/05/26 03:01:05;;;;;;;0.10;0.10;;;;;;;;;;5006956;28;20065;-81
2023/05/26 03:03:32;;;;;;;0.10;0.10;;;;;;;;;;5010540;28;20054;-80
2023/05/26 03:05:59;;;;;;;0.10;0.10;;;;;;;;;;5010665;28;20096;-80
2023/05/26 03:08:26;;;;;;;0.10;0.10;;;;;;;;;;5010751;28;20062;-80
2023/05/26 03:10:52;;;;;;;0.10;0.10;;;;;;;;;;5011246;28;20295;-80
2023/05/26 03:13:36;;;;;;;0.10;0.10;;;;;;;;;;5011643;28;20058;-80
2023/05/26 03:16:03;;;;;;;0.10;0.10;;;;;;;;;;4994108;28;20089;-80
2023/05/26 03:18:30;;;;;;;0.10;0.10;;;;;;;;;;5011009;28;20047;-80
2023/05/26 03:20:56;;;;;;;0.10;0.10;;;;;;;;;;5010308;28;20333;-80
2023/05/26 03:23:24;;;;;;;0.10;0.10;;;;;;;;;;5010927;28;20070;-80
2023/05/26 03:25:51;;;;;;;0.10;0.10;;;;;;;;;;5005712;28;20051;-80
2023/05/26 03:28:17;;;;;;;0.10;0.10;;;;;;;;;;5010265;28;20089;-80
2023/05/26 03:30:44;;;;;;;0.10;0.10;;;;;;;;;;5011045;28;20062;-81
2023/05/26 03:33:11;;;;;;;0.40;0.40;;;;;;;;;;5011821;28;20157;-80
2023/05/26 03:35:37;;;;;;;0.10;0.10;;;;;;;;;;5009627;28;20058;-80
2023/05/26 03:38:04;;;;;;;0.10;0.10;;;;;;;;;;5010992;28;20151;-80
2023/05/26 03:40:31;;;;;;;0.10;0.10;;;;;;;;;;5009126;28;20060;-81
2023/05/26 03:42:57;;;;;;;0.10;0.10;;;;;;;;;;5010351;28;20822;-80
2023/05/26 03:45:24;;;;;;;0.10;0.10;;;;;;;;;;5009364;28;20050;-80
2023/05/26 03:47:50;;;;;;;0.10;0.10;;;;;;;;;;5011455;28;20058;-80
2023/05/26 03:50:17;;;;;;;0.10;0.10;;;;;;;;;;5011895;28;20062;-80
2023/05/26 03:52:43;;;;;;;0.75;0.75;;;;;;;;;;5010696;28;20078;-80
2023/05/26 03:55:10;;;;;;;0.10;0.10;;;;;;;;;;5012523;28;20069;-80
2023/05/26 03:57:38;;;;;;;0.20;0.20;;;;;;;;;;5002444;28;20094;-81
2023/05/26 04:00:10;;;;;;;0.10;0.10;;;;;;;;;;5010863;28;20062;-81
2023/05/26 04:02:36;;;;;;;0.10;0.10;;;;;;;;;;5014907;28;20064;-80
2023/05/26 04:05:03;;;;;;;0.10;0.10;;;;;;;;;;5014422;28;20074;-80
2023/05/26 04:07:30;;;;;;;0.10;0.10;;;;;;;;;;5013935;28;20512;-80
2023/05/26 04:09:56;;;;;;;0.10;0.10;;;;;;;;;;5011240;28;20059;-81
2023/05/26 04:12:22;;;;;;;0.10;0.10;;;;;;;;;;5015899;28;20058;-81
2023/05/26 04:14:49;;;;;;;0.10;0.10;;;;;;;;;;5010396;28;20059;-80
2023/05/26 04:17:16;;;;;;;0.10;0.10;;;;;;;;;;5011759;28;20565;-80
2023/05/26 04:19:42;;;;;;;0.10;0.10;;;;;;;;;;5012430;28;20061;-80
2023/05/26 04:22:11;;;;;;;0.10;0.10;;;;;;;;;;5012416;28;20058;-81
2023/05/26 04:24:37;;;;;;;0.10;0.10;;;;;;;;;;5012879;28;20990;-80
2023/05/26 04:27:07;;;;;;;0.20;0.20;;;;;;;;;;5012487;28;20058;-80
2023/05/26 04:29:34;;;;;;;0.10;0.10;;;;;;;;;;4995552;28;20302;-80
2023/05/26 04:32:01;;;;;;;0.10;0.10;;;;;;;;;;5004457;28;20062;-80
2023/05/26 04:34:28;;;;;;;0.10;0.10;;;;;;;;;;5013829;28;20133;-80
2023/05/26 04:36:55;;;;;;;0.10;0.10;;;;;;;;;;5013175;28;20080;-80
2023/05/26 04:39:22;;;;;;;0.10;0.10;;;;;;;;;;5010946;28;20057;-80
2023/05/26 04:41:49;;;;;;;0.10;0.10;;;;;;;;;;5004796;28;20516;-80
2023/05/26 04:44:18;;;;;;;0.10;0.10;;;;;;;;;;5005260;28;20051;-80
2023/05/26 04:46:45;;;;;;;0.10;0.10;;;;;;;;;;5012671;28;20939;-80
2023/05/26 04:49:12;;;;;;;0.10;0.10;;;;;;;;;;5012293;28;20059;-80
2023/05/26 04:51:39;;;;;;;0.10;0.10;;;;;;;;;;5013138;28;20463;-80
2023/05/26 04:54:05;;;;;;;0.10;0.10;;;;;;;;;;5003703;28;20062;-80
2023/05/26 04:56:32;;;;;;;0.10;0.10;;;;;;;;;;5012398;28;20860;-81
2023/05/26 04:58:58;;;;;;;0.10;0.10;;;;;;;;;;4993006;28;20087;-80
2023/05/26 05:01:26;;;;;;;0.10;0.10;;;;;;;;;;4990230;28;20146;-80
2023/05/26 05:03:52;;;;;;;0.10;0.10;;;;;;;;;;4992514;28;20051;-80
2023/05/26 05:06:19;;;;;;;0.10;0.10;;;;;;;;;;4997742;28;20059;-81
2023/05/26 05:08:46;;;;;;;0.10;0.10;;;;;;;;;;5011249;28;20046;-80
2023/05/26 05:11:12;;;;;;;0.10;0.10;;;;;;;;;;5010710;28;20054;-80
2023/05/26 05:13:39;;;;;;;0.10;0.10;;;;;;;;;;4992091;28;20102;-81
2023/05/26 05:16:06;;;;;;;0.10;0.10;;;;;;;;;;4991605;28;20054;-81
2023/05/26 05:18:32;;;;;;;0.10;0.10;;;;;;;;;;4990150;28;20051;-81
2023/05/26 05:20:59;;;;;;;0.22;0.22;;;;;;;;;;4990689;28;20138;-81
2023/05/26 05:23:25;;;;;;;0.10;0.10;;;;;;;;;;4999148;28;20091;-81
2023/05/26 05:25:52;;;;;;;0.10;0.10;;;;;;;;;;5006673;28;20585;-80
2023/05/26 05:28:19;;;;;;;0.20;0.20;;;;;;;;;;5008730;28;20312;-81
2023/05/26 05:30:45;;;;;;;0.10;0.10;;;;;;;;;;5009558;28;20050;-81
2023/05/26 05:33:12;;;;;;;0.10;0.10;;;;;;;;;;5010620;28;20061;-81
2023/05/26 05:35:39;;;;;;;0.10;0.10;;;;;;;;;;5008684;28;20057;-81
2023/05/26 05:38:08;;;;;;;0.10;0.10;;;;;;;;;;5010187;28;20038;-81
2023/05/26 05:40:35;;;;;;;0.10;0.10;;;;;;;;;;5007942;28;20057;-80
2023/05/26 05:43:01;;;;;;;0.10;0.10;;;;;;;;;;5011026;28;20038;-81
2023/05/26 05:45:28;;;;;;;0.10;0.10;;;;;;;;;;5006439;28;20051;-81
2023/05/26 05:47:54;;;;;;;0.10;0.10;;;;;;;;;;5012444;28;20058;-80
2023/05/26 05:50:21;;;;;;;0.10;0.10;;;;;;;;;;5009528;28;20057;-81
2023/05/26 05:52:48;;;;;;;0.10;0.10;;;;;;;;;;5010627;28;20062;-80
2023/05/26 05:55:15;;;;;;;0.10;0.10;;;;;;;;;;5006317;28;20054;-81
2023/05/26 05:57:41;;;;;;;0.10;0.10;;;;;;;;;;5002068;28;20054;-81
2023/05/26 06:00:09;;;;;;;0.10;0.10;;;;;;;;;;5008593;28;20133;-80
2023/05/26 06:02:36;;;;;;;0.30;0.30;;;;;;;;;;5009819;28;20058;-80
2023/05/26 06:05:03;;;;;;;0.10;0.10;;;;;;;;;;4999859;28;20137;-81
2023/05/26 06:07:30;;;;;;;0.10;0.10;;;;;;;;;;5007151;28;20067;-80
2023/05/26 06:09:57;;;;;;;0.32;0.32;;;;;;;;;;5010381;28;20711;-80
2023/05/26 06:12:23;;;;;;;2.78;0.85;;;;;;;;;;5009484;28;20055;-81
2023/05/26 06:14:50;;;;;;;0.10;0.10;;;;;;;;;;5007234;28;20054;-80
2023/05/26 06:17:17;;;;;;;0.10;0.10;;;;;;;;;;4996086;28;20051;-81
2023/05/26 06:19:44;;;;;;;0.10;0.10;;;;;;;;;;4990518;28;20111;-81
2023/05/26 06:22:10;;;;;;;0.10;0.10;;;;;;;;;;4990759;28;20074;-81
2023/05/26 06:24:37;;;;;;;0.15;0.15;;;;;;;;;;4993462;28;20063;-80
2023/05/26 06:27:03;;;;;;;1.05;0.95;;;;;;;;;;5003618;28;20057;-80
2023/05/26 06:29:30;;;;;;;0.10;0.10;;;;;;;;;;5008565;28;20074;-81
2023/05/26 06:31:56;;;;;;;0.10;0.10;;;;;;;;;;5010706;28;20058;-81
2023/05/26 06:34:23;;;;;;;0.10;0.10;;;;;;;;;;5009981;28;20054;-80
2023/05/26 06:36:50;;;;;;;0.10;0.10;;;;;;;;;;5014375;28;20054;-81
2023/05/26 06:39:17;;;;;;;1.13;1.02;;;;;;;;;;5013028;28;20042;-81
2023/05/26 06:41:44;;;;;;;0.10;0.10;;;;;;;;;;5012778;28;20058;-81
2023/05/26 06:44:11;;;;;;;0.13;0.13;;;;;;;;;;5011024;28;20054;-81
2023/05/26 06:46:37;;;;;;;0.10;0.10;;;;;;;;;;5011596;28;20038;-81
2023/05/26 06:49:04;;;;;;;0.10;0.10;;;;;;;;;;5009346;28;20059;-81
2023/05/26 06:51:30;;;;;;;0.13;0.13;;;;;;;;;;5005974;28;20154;-81
2023/05/26 06:53:57;;;;;;;0.10;0.10;;;;;;;;;;5015414;28;20055;-81
2023/05/26 06:56:26;;;;;;;0.22;0.22;;;;;;;;;;5016656;28;20194;-81
2023/05/26 06:58:52;;;;;;;0.40;0.40;;;;;;;;;;5016932;28;20066;-80
2023/05/26 07:01:19;;;;;;;0.20;0.20;;;;;;;;;;5010666;28;20130;-81
2023/05/26 07:03:46;;;;;;;0.10;0.10;;;;;;;;;;5006595;28;20050;-82
2023/05/26 07:06:12;;;;;;;2.45;0.45;;;;;;;;;;5003649;28;20062;-82
2023/05/26 07:08:39;;;;;;;0.28;0.28;;;;;;;;;;5000937;28;20077;-82
2023/05/26 07:11:06;;;;;;;0.47;0.47;;;;;;;;;;5007448;28;20054;-82
2023/05/26 07:13:33;;;;;;;0.10;0.10;;;;;;;;;;5001382;28;20166;-83
2023/05/26 07:15:59;;;;;;;0.10;0.10;;;;;;;;;;5004854;28;20078;-82
2023/05/26 07:18:26;;;;;;;0.20;0.20;;;;;;;;;;5005552;28;20054;-82
2023/05/26 07:23:41;;;;;;;0.10;0.10;;;;;;;;;;5835806;22;20015;-81
2023/05/26 07:26:07;;;;;;;0.20;0.20;;;;;;;;;;4976885;28;20762;-81
2023/05/26 07:28:34;;;;;;;0.15;0.15;;;;;;;;;;4995117;28;20106;-81
2023/05/26 07:31:01;;;;;;;0.10;0.10;;;;;;;;;;4996723;28;20095;-80
2023/05/26 07:33:27;;;;;;;0.47;0.43;;;;;;;;;;5001434;28;20547;-81
2023/05/26 07:35:54;;;;;;;0.25;0.25;;;;;;;;;;5011271;28;20070;-80
2023/05/26 07:38:21;;;;;;;0.35;0.35;;;;;;;;;;5013559;28;20066;-80
2023/05/26 07:40:47;;;;;;;0.47;0.40;;;;;;;;;;5009485;28;20113;-80
2023/05/26 07:43:14;;;;;;;0.73;0.73;;;;;;;;;;5011889;28;20059;-81
2023/05/26 07:45:40;;;;;;;0.45;0.30;;;;;;;;;;5012675;28;20054;-82
2023/05/26 07:48:07;;;;;;;0.40;0.40;;;;;;;;;;5010848;28;20046;-83
2023/05/26 07:50:33;;;;;;;0.10;0.10;;;;;;;;;;5002116;28;20055;-81
2023/05/26 07:53:00;;;;;;;0.10;0.10;;;;;;;;;;5010847;28;20527;-81
2023/05/26 07:55:26;;;;;;;0.80;0.75;;;;;;;;;;5012835;28;20058;-81
2023/05/26 07:57:53;;;;;;;0.10;0.10;;;;;;;;;;5013758;28;20113;-81
2023/05/26 08:00:19;;;;;;;0.43;0.35;;;;;;;;;;5011514;28;20897;-82
2023/05/26 08:02:46;;;;;;;0.10;0.10;;;;;;;;;;5007388;28;20059;-81
2023/05/26 08:05:13;;;;;;;0.20;0.13;;;;;;;;;;5011279;28;20090;-82
2023/05/26 08:07:39;;;;;;;0.20;0.20;;;;;;;;;;5011666;28;20078;-83
2023/05/26 08:10:06;;;;;;;0.22;0.22;;;;;;;;;;5010242;28;20094;-85
2023/05/26 08:12:32;;;;;;;0.10;0.10;;;;;;;;;;5010321;28;20168;-84
2023/05/26 08:15:01;;;;;;;0.80;0.63;;;;;;;;;;5014860;28;20050;-84
2023/05/26 08:17:28;;;;;;;3.20;0.73;;;;;;;;;;5015824;28;20219;-84
2023/05/26 08:19:54;;;;;;;0.20;0.20;;;;;;;;;;5007540;28;20059;-84
2023/05/26 08:22:21;;;;;;;0.20;0.20;;;;;;;;;;5009246;28;20043;-84
2023/05/26 08:24:47;;;;;;;0.10;0.10;;;;;;;;;;5010293;28;20046;-83
2023/05/26 08:27:14;;;;;;;0.20;0.20;;;;;;;;;;5014428;28;20058;-82
2023/05/26 08:29:40;;;;;;;0.28;0.28;;;;;;;;;;5006850;28;20782;-78
2023/05/26 08:32:07;;;;;;;0.43;0.43;;;;;;;;;;5005943;28;20102;-78
2023/05/26 08:34:33;;;;;;;0.30;0.30;;;;;;;;;;5002563;28;20117;-78
2023/05/26 08:37:00;;;;;;;0.20;0.20;;;;;;;;;;5005594;28;20097;-78
2023/05/26 08:39:26;;;;;;;0.30;0.30;;;;;;;;;;5006854;28;20161;-78
2023/05/26 08:41:59;;;;;;;0.43;0.40;;;;;;;;;;5009032;28;20501;-78
2023/05/26 08:44:26;;;;;;;1.20;0.70;;;;;;;;;;5006166;28;20054;-79
2023/05/26 08:46:57;;;;;;;0.20;0.20;;;;;;;;;;5007099;28;20069;-78
2023/05/26 08:49:24;;;;;;;0.17;0.17;;;;;;;;;;5004000;28;20053;-79
2023/05/26 08:52:02;;;;;;;0.20;0.20;;;;;;;;;;5010545;28;20124;-80
2023/05/26 08:54:28;;;;;;;0.20;0.20;;;;;;;;;;5012898;28;20508;-79
2023/05/26 08:56:57;;;;;;;0.40;0.40;;;;;;;;;;5004710;28;20579;-79
2023/05/26 08:59:23;;;;;;;0.22;0.22;;;;;;;;;;5011961;28;20839;-79
2023/05/26 09:01:50;;;;;;;0.35;0.22;;;;;;;;;;5010044;28;20035;-79
2023/05/26 09:04:16;;;;;;;0.20;0.20;;;;;;;;;;5011875;28;20468;-80
2023/05/26 09:06:44;;;;;;;0.80;0.80;;;;;;;;;;5013418;28;20055;-78
2023/05/26 09:09:29;;;;;;;1.10;0.57;;;;;;;;;;5009208;28;20086;-79
2023/05/26 09:11:56;;;;;;;1.35;0.47;;;;;;;;;;5003826;28;20094;-78
2023/05/26 09:14:23;;;;;;;0.30;0.30;;;;;;;;;;4997379;28;20051;-79
2023/05/26 09:16:50;;;;;;;0.20;0.20;;;;;;;;;;5003818;28;20057;-79
2023/05/26 09:19:17;;;;;;;0.20;0.20;;;;;;;;;;5005813;28;20058;-79
2023/05/26 09:21:45;;;;;;;0.52;0.40;;;;;;;;;;5004899;28;20066;-79
2023/05/26 09:24:13;;;;;;;0.20;0.20;;;;;;;;;;5003946;28;20100;-79
2023/05/26 09:26:40;;;;;;;0.20;0.20;;;;;;;;;;5001047;28;20489;-77
2023/05/26 09:29:06;;;;;;;0.20;0.20;;;;;;;;;;5005413;28;20085;-78
2023/05/26 09:31:40;;;;;;;2.78;0.68;;;;;;;;;;5004143;28;20106;-77
2023/05/26 09:34:07;;;;;;;0.20;0.20;;;;;;;;;;5007274;28;20113;-75
2023/05/26 09:36:34;;;;;;;0.20;0.20;;;;;;;;;;5005112;28;20531;-76
2023/05/26 09:39:02;;;;;;;1.35;1.17;;;;;;;;;;5002095;28;20452;-77
2023/05/26 09:41:35;;;;;;;0.90;0.30;;;;;;;;;;5001925;28;20058;-77
2023/05/26 09:44:22;;;;;;;0.20;0.20;;;;;;;;;;5004437;28;20050;-77
2023/05/26 09:46:51;;;;;;;0.50;0.50;;;;;;;;;;4986645;28;20055;-76
2023/05/26 09:49:18;;;;;;;0.65;0.30;;;;;;;;;;5005598;28;20145;-75
2023/05/26 09:51:46;;;;;;;0.30;0.30;;;;;;;;;;5007461;28;20579;-75
2023/05/26 09:54:22;;;;;;;0.75;0.43;;;;;;;;;;4993323;28;20070;-77
2023/05/26 09:56:53;;;;;;;0.20;0.20;;;;;;;;;;5006698;28;20058;-78
2023/05/26 09:59:21;;;;;;;0.20;0.20;;;;;;;;;;5008601;28;20984;-75
2023/05/26 10:01:48;;;;;;;0.20;0.20;;;;;;;;;;5001209;28;20062;-77
2023/05/26 10:04:15;;;;;;;0.30;0.30;;;;;;;;;;4992443;28;20119;-77
2023/05/26 10:06:42;;;;;;;0.20;0.20;;;;;;;;;;4989333;28;20055;-78
2023/05/26 10:09:10;;;;;;;0.20;0.20;;;;;;;;;;4992202;28;20059;-77
2023/05/26 10:11:40;;;;;;;0.25;0.25;;;;;;;;;;5003521;28;20065;-77
2023/05/26 10:14:07;;;;;;;0.55;0.40;;;;;;;;;;5005503;28;20054;-77
2023/05/26 10:16:33;;;;;;;0.20;0.20;;;;;;;;;;5003789;28;20054;-77
2023/05/26 10:19:00;;;;;;;0.38;0.38;;;;;;;;;;5006152;28;20086;-77
2023/05/26 10:21:28;;;;;;;0.20;0.20;;;;;;;;;;4999081;28;20571;-76
2023/05/26 10:24:08;;;;;;;0.28;0.28;;;;;;;;;;5002564;28;20540;-76
2023/05/26 10:26:52;;;;;;;0.32;0.28;;;;;;;;;;5003883;28;20145;-77
2023/05/26 10:29:21;;;;;;;0.43;0.40;;;;;;;;;;5004355;28;20078;-78
2023/05/26 10:31:48;;;;;;;0.70;0.50;;;;;;;;;;5003731;28;20054;-76
2023/05/26 10:34:34;;;;;;;0.20;0.20;;;;;;;;;;5002524;28;20054;-80
2023/05/26 10:37:01;;;;;;;0.30;0.30;;;;;;;;;;5003441;28;20854;-77
2023/05/26 10:39:27;;;;;;;0.45;0.30;;;;;;;;;;4994079;28;20109;-77
2023/05/26 10:41:54;;;;;;;0.20;0.20;;;;;;;;;;5004618;28;20050;-75
2023/05/26 10:44:38;;;;;;;6.63;1.50;;;;;;;;;;5005995;28;20056;-77
2023/05/26 10:47:05;;;;;;;0.20;0.20;;;;;;;;;;4996548;28;20054;-77
2023/05/26 10:49:35;;;;;;;1.58;0.45;;;;;;;;;;4999819;28;20058;-77
2023/05/26 10:52:07;;;;;;;0.85;0.40;;;;;;;;;;5000619;28;20836;-78
2023/05/26 10:54:33;;;;;;;0.20;0.20;;;;;;;;;;4997975;28;20054;-77
2023/05/26 10:56:59;;;;;;;3.20;0.77;;;;;;;;;;4999241;28;20051;-76
2023/05/26 10:59:33;;;;;;;0.20;0.20;;;;;;;;;;5002686;28;20571;-77
2023/05/26 11:02:03;;;;;;;0.20;0.20;;;;;;;;;;5007696;28;20054;-77
2023/05/26 11:04:41;;;;;;;0.30;0.30;;;;;;;;;;5004875;28;20065;-81
2023/05/26 11:07:21;;;;;;;0.30;0.30;;;;;;;;;;5001504;28;20109;-79
2023/05/26 11:09:56;;;;;;;0.45;0.45;;;;;;;;;;5006111;28;20136;-78
2023/05/26 11:12:25;;;;;;;0.20;0.20;;;;;;;;;;5002189;28;20058;-79
2023/05/26 11:14:51;;;;;;;0.20;0.20;;;;;;;;;;5005223;28;20058;-77
2023/05/26 11:17:21;;;;;;;0.30;0.30;;;;;;;;;;5006735;28;20163;-77
2023/05/26 11:19:58;;;;;;;1.27;0.57;;;;;;;;;;5009008;28;20109;-77
2023/05/26 11:22:25;;;;;;;0.47;0.38;;;;;;;;;;5008451;28;20647;-77
2023/05/26 11:24:59;;;;;;;0.30;0.30;;;;;;;;;;5005833;28;20966;-77
2023/05/26 11:27:52;;;;;;;;;;;;;;;;;;5008956;28;20060;-77
2023/05/26 11:30:19;;;;;;;0.30;0.30;;;;;;;;;;4996831;28;43397;-77
2023/05/26 11:32:49;;;;;;;1.13;1.00;;;;;;;;;;5007138;28;20047;-77
2023/05/26 11:35:22;;;;;;;1.15;1.05;;;;;;;;;;5008675;28;20050;-77
2023/05/26 11:37:48;;;;;;;0.63;0.30;;;;;;;;;;5006489;28;20424;-76
2023/05/26 11:40:15;;;;;;;0.50;0.50;;;;;;;;;;5002413;28;20051;-78
2023/05/26 11:42:45;;;;;;;0.20;0.20;;;;;;;;;;5007522;28;20508;-77
2023/05/26 11:45:12;;;;;;;0.20;0.20;;;;;;;;;;5000896;28;20574;-76
2023/05/26 11:47:39;;;;;;;0.30;0.30;;;;;;;;;;4988716;28;20145;-76
2023/05/26 11:50:07;;;;;;;0.82;0.70;;;;;;;;;;4997524;28;20061;-77
2023/05/26 11:52:34;;;;;;;0.30;0.30;;;;;;;;;;5006659;28;20074;-78
2023/05/26 11:55:02;;;;;;;0.28;0.28;;;;;;;;;;5007245;28;20054;-76
2023/05/26 11:57:31;;;;;;;0.32;0.30;;;;;;;;;;5006882;28;20054;-77
2023/05/26 11:59:58;;;;;;;1.10;0.82;;;;;;;;;;5005603;28;20065;-78
2023/05/26 12:02:24;;;;;;;0.85;0.50;;;;;;;;;;5006639;28;20050;-77
2023/05/26 12:04:51;;;;;;;0.20;0.20;;;;;;;;;;4988523;28;20051;-77
2023/05/26 12:07:25;;;;;;;1.30;0.50;;;;;;;;;;5004047;28;20864;-76
2023/05/26 12:10:08;;;;;;;0.20;0.20;;;;;;;;;;5006720;28;20062;-77
2023/05/26 12:12:47;;;;;;;1.27;1.17;;;;;;;;;;5006719;28;20054;-77
2023/05/26 12:15:18;;;;;;;0.93;0.57;;;;;;;;;;5006262;28;20058;-76
2023/05/26 12:17:44;;;;;;;0.55;0.30;;;;;;;;;;5005240;28;20687;-77
2023/05/26 12:20:14;;;;;;;0.20;0.20;;;;;;;;;;5002544;28;20584;-77
2023/05/26 12:23:05;;;;;;;1.05;0.30;;;;;;;;;;4991326;28;20082;-77
2023/05/26 12:25:32;;;;;;;0.85;0.82;;;;;;;;;;5005245;28;20536;-77
2023/05/26 12:28:00;;;;;;;0.52;0.30;;;;;;;;;;5006699;28;20054;-77
2023/05/26 12:30:27;;;;;;;0.38;0.38;;;;;;;;;;5006096;28;20074;-77
2023/05/26 12:33:13;;;;;;;0.20;0.20;;;;;;;;;;5006378;28;20054;-76
2023/05/26 12:35:40;;;;;;;0.20;0.20;;;;;;;;;;5005303;28;20065;-76
2023/05/26 12:38:06;;;;;;;0.30;0.30;;;;;;;;;;4995429;28;20058;-77
2023/05/26 12:40:33;;;;;;;0.20;0.20;;;;;;;;;;4987876;28;20051;-76
2023/05/26 12:43:00;;;;;;;0.25;0.25;;;;;;;;;;5007171;28;20058;-79
2023/05/26 12:45:26;;;;;;;0.82;0.40;;;;;;;;;;5006470;28;20058;-77
2023/05/26 12:47:53;;;;;;;0.52;0.52;;;;;;;;;;5004708;28;20058;-77
2023/05/26 12:50:19;;;;;;;0.22;0.22;;;;;;;;;;5006593;28;20608;-77
2023/05/26 12:52:47;;;;;;;0.30;0.30;;;;;;;;;;5006333;28;20138;-77
2023/05/26 12:55:15;;;;;;;0.30;0.30;;;;;;;;;;5000102;28;20058;-76
2023/05/26 12:57:41;;;;;;;0.52;0.30;;;;;;;;;;5006742;28;20181;-77
2023/05/26 13:00:09;;;;;;;0.30;0.30;;;;;;;;;;5004126;28;20051;-76
2023/05/26 13:02:36;;;;;;;0.20;0.20;;;;;;;;;;5006159;28;20058;-77
2023/05/26 13:05:04;;;;;;;0.20;0.20;;;;;;;;;;5006146;28;20132;-78
2023/05/26 13:07:30;;;;;;;0.10;0.10;;;;;;;;;;5005769;28;20054;-77
2023/05/26 13:09:57;;;;;;;0.20;0.20;;;;;;;;;;5004888;28;20251;-76
2023/05/26 13:12:23;;;;;;;2.03;1.10;;;;;;;;;;5005734;28;20078;-77
2023/05/26 13:14:50;;;;;;;0.20;0.20;;;;;;;;;;5006154;28;20054;-76
2023/05/26 13:17:17;;;;;;;0.20;0.20;;;;;;;;;;5006817;28;20054;-77
2023/05/26 13:19:44;;;;;;;0.40;0.40;;;;;;;;;;5007431;28;20072;-77
2023/05/26 13:22:10;;;;;;;12.43;0.95;;;;;;;;;;5001285;28;20054;-77
2023/05/26 13:24:37;;;;;;;0.20;0.20;;;;;;;;;;5004319;28;20054;-77
2023/05/26 13:27:04;;;;;;;0.60;0.40;;;;;;;;;;5007105;28;20054;-77
2023/05/26 13:29:31;;;;;;;0.50;0.43;;;;;;;;;;5008554;28;20047;-77
2023/05/26 13:31:58;;;;;;;0.47;0.40;;;;;;;;;;5006278;28;20129;-76
2023/05/26 13:34:24;;;;;;;0.20;0.20;;;;;;;;;;5006407;28;20531;-77
2023/05/26 13:36:52;;;;;;;0.20;0.20;;;;;;;;;;5005129;28;20060;-79
2023/05/26 13:39:19;;;;;;;0.22;0.22;;;;;;;;;;5007264;28;20194;-76
2023/05/26 13:41:45;;;;;;;0.75;0.75;;;;;;;;;;5004929;28;20057;-76
2023/05/26 13:44:12;;;;;;;0.30;0.30;;;;;;;;;;5005321;28;20062;-77
2023/05/26 13:46:38;;;;;;;1.67;1.40;;;;;;;;;;4990666;28;20066;-77
2023/05/26 13:49:05;;;;;;;0.30;0.30;;;;;;;;;;4986207;28;20102;-76
2023/05/26 13:51:32;;;;;;;0.30;0.30;;;;;;;;;;4997991;28;20082;-76
2023/05/26 13:53:58;;;;;;;0.20;0.20;;;;;;;;;;5005259;28;20176;-77
2023/05/26 13:56:26;;;;;;;0.20;0.20;;;;;;;;;;5007170;28;20062;-76
2023/05/26 13:58:53;;;;;;;3.33;0.60;;;;;;;;;;5003749;28;20059;-76
2023/05/26 14:01:22;;;;;;;1.42;0.93;;;;;;;;;;5004832;28;20504;-76
2023/05/26 14:04:02;;;;;;;0.68;0.50;;;;;;;;;;5003263;28;20137;-76
2023/05/26 14:06:34;;;;;;;0.40;0.40;;;;;;;;;;5005406;28;20074;-77
2023/05/26 14:09:02;;;;;;;1.15;0.47;;;;;;;;;;5004739;28;20566;-77
2023/05/26 14:11:28;;;;;;;0.20;0.20;;;;;;;;;;5004720;28;20057;-77
2023/05/26 14:13:55;;;;;;;1.17;0.75;;;;;;;;;;5004228;28;20055;-77
2023/05/26 14:16:21;;;;;;;0.25;0.25;;;;;;;;;;5005371;28;20551;-76
2023/05/26 14:18:47;;;;;;;0.20;0.20;;;;;;;;;;5004725;28;20054;-75
2023/05/26 14:21:32;;;;;;;0.47;0.32;;;;;;;;;;5005314;28;20129;-76
2023/05/26 14:24:18;;;;;;;0.50;0.25;;;;;;;;;;5002203;28;20062;-77
2023/05/26 14:26:45;;;;;;;0.22;0.22;;;;;;;;;;5002959;28;20054;-76
2023/05/26 14:29:11;;;;;;;0.80;0.40;;;;;;;;;;5004782;28;20061;-77
2023/05/26 14:31:37;;;;;;;0.30;0.30;;;;;;;;;;5004921;28;20517;-76
2023/05/26 14:34:04;;;;;;;0.30;0.30;;;;;;;;;;4985789;28;20057;-77
2023/05/26 14:36:31;;;;;;;0.40;0.40;;;;;;;;;;4986470;28;20059;-80
2023/05/26 14:38:59;;;;;;;0.20;0.20;;;;;;;;;;5003478;28;20540;-76
2023/05/26 14:41:26;;;;;;;0.43;0.43;;;;;;;;;;5006098;28;20054;-77
2023/05/26 14:43:53;;;;;;;1.05;1.02;;;;;;;;;;5002954;28;20059;-77
2023/05/26 14:46:19;;;;;;;0.20;0.20;;;;;;;;;;5001937;28;20050;-78
2023/05/26 14:48:46;;;;;;;0.20;0.20;;;;;;;;;;5005001;28;20552;-75
2023/05/26 14:51:12;;;;;;;4.28;0.60;;;;;;;;;;5006401;28;20101;-77